sensor_id;sensor_type;location;lat;lon;timestamp;P1;durP1;ratioP1;P2;durP2;ratioP2
4462;SDS011;2244;50.200;8.220;2024-03-23T00:54:26;79.17;;;38.37;;
4462;SDS011;2244;50.200;8.220;2024-03-23T00:56:53;87.07;;;39.00;;
4462;SDS011;2244;50.200;8.220;2024-03-23T00:59:21;81.90;;;36.17;;
4462;SDS011;2244;50.200;8.220;2024-03-23T01:01:50;83.43;;;35.10;;
4462;SDS011;2244;50.200;8.220;2024-03-23T01:04:17;74.07;;;33.43;;
4462;SDS011;2244;50.200;8.220;2024-03-23T01:06:45;78.73;;;35.10;;
4462;SDS011;2244;50.200;8.220;2024-03-23T01:09:12;70.90;;;34.37;;
4462;SDS011;2244;50.200;8.220;2024-03-23T01:11:40;83.40;;;35.43;;
4462;SDS011;2244;50.200;8.220;2024-03-23T01:14:07;75.57;;;34.93;;
4462;SDS011;2244;50.200;8.220;2024-03-23T01:16:35;77.97;;;34.90;;
4462;SDS011;2244;50.200;8.220;2024-03-23T01:19:05;73.40;;;34.37;;
4462;SDS011;2244;50.200;8.220;2024-03-23T01:21:32;71.80;;;34.53;;
4462;SDS011;2244;50.200;8.220;2024-03-23T01:24:00;69.33;;;32.10;;
4462;SDS011;2244;50.200;8.220;2024-03-23T01:26:27;68.40;;;32.37;;
4462;SDS011;2244;50.200;8.220;2024-03-23T01:28:55;77.77;;;36.13;;
4462;SDS011;2244;50.200;8.220;2024-03-23T01:31:27;75.83;;;33.47;;
4462;SDS011;2244;50.200;8.220;2024-03-23T01:33:51;67.17;;;31.97;;
4462;SDS011;2244;50.200;8.220;2024-03-23T01:36:19;67.53;;;32.63;;
4462;SDS011;2244;50.200;8.220;2024-03-23T01:38:47;74.83;;;32.83;;
4462;SDS011;2244;50.200;8.220;2024-03-23T01:41:14;77.90;;;35.90;;
4462;SDS011;2244;50.200;8.220;2024-03-23T01:43:42;72.20;;;36.90;;
4462;SDS011;2244;50.200;8.220;2024-03-23T01:46:09;72.00;;;33.57;;
4462;SDS011;2244;50.200;8.220;2024-03-23T01:48:36;71.53;;;33.50;;
4462;SDS011;2244;50.200;8.220;2024-03-23T01:51:04;75.57;;;34.50;;
4462;SDS011;2244;50.200;8.220;2024-03-23T01:53:31;67.50;;;31.90;;
4462;SDS011;2244;50.200;8.220;2024-03-23T01:55:59;73.87;;;34.23;;
4462;SDS011;2244;50.200;8.220;2024-03-23T01:58:26;70.47;;;32.57;;
4462;SDS011;2244;50.200;8.220;2024-03-23T02:00:54;68.37;;;31.73;;
4462;SDS011;2244;50.200;8.220;2024-03-23T02:03:25;72.47;;;33.63;;
4462;SDS011;2244;50.200;8.220;2024-03-23T02:05:51;69.17;;;33.03;;
4462;SDS011;2244;50.200;8.220;2024-03-23T02:08:22;71.67;;;34.10;;
4462;SDS011;2244;50.200;8.220;2024-03-23T02:10:50;70.87;;;32.30;;
4462;SDS011;2244;50.200;8.220;2024-03-23T02:13:18;77.53;;;31.33;;
4462;SDS011;2244;50.200;8.220;2024-03-23T02:15:45;72.20;;;33.43;;
4462;SDS011;2244;50.200;8.220;2024-03-23T02:18:13;66.63;;;32.10;;
4462;SDS011;2244;50.200;8.220;2024-03-23T02:20:40;80.17;;;37.30;;
4462;SDS011;2244;50.200;8.220;2024-03-23T02:23:14;72.57;;;34.10;;
4462;SDS011;2244;50.200;8.220;2024-03-23T02:25:42;82.93;;;36.70;;
4462;SDS011;2244;50.200;8.220;2024-03-23T02:28:11;74.80;;;34.17;;
4462;SDS011;2244;50.200;8.220;2024-03-23T02:30:38;78.70;;;35.77;;
4462;SDS011;2244;50.200;8.220;2024-03-23T02:33:06;75.17;;;36.00;;
4462;SDS011;2244;50.200;8.220;2024-03-23T02:35:33;81.23;;;37.40;;
4462;SDS011;2244;50.200;8.220;2024-03-23T02:38:01;90.10;;;39.60;;
4462;SDS011;2244;50.200;8.220;2024-03-23T02:40:28;79.20;;;38.47;;
4462;SDS011;2244;50.200;8.220;2024-03-23T02:42:55;87.90;;;39.60;;
4462;SDS011;2244;50.200;8.220;2024-03-23T02:45:23;81.47;;;38.80;;
4462;SDS011;2244;50.200;8.220;2024-03-23T02:47:50;87.87;;;39.27;;
4462;SDS011;2244;50.200;8.220;2024-03-23T02:50:18;86.77;;;39.73;;
4462;SDS011;2244;50.200;8.220;2024-03-23T02:52:46;93.20;;;42.00;;
4462;SDS011;2244;50.200;8.220;2024-03-23T02:55:14;95.63;;;39.97;;
4462;SDS011;2244;50.200;8.220;2024-03-23T02:57:41;100.93;;;43.50;;
4462;SDS011;2244;50.200;8.220;2024-03-23T03:00:09;86.67;;;40.17;;
4462;SDS011;2244;50.200;8.220;2024-03-23T03:02:37;89.87;;;41.27;;
4462;SDS011;2244;50.200;8.220;2024-03-23T03:05:05;96.40;;;41.50;;
4462;SDS011;2244;50.200;8.220;2024-03-23T03:07:32;95.13;;;42.07;;
4462;SDS011;2244;50.200;8.220;2024-03-23T03:10:00;110.27;;;47.00;;
4462;SDS011;2244;50.200;8.220;2024-03-23T03:12:31;100.17;;;43.60;;
4462;SDS011;2244;50.200;8.220;2024-03-23T03:14:59;91.03;;;42.13;;
4462;SDS011;2244;50.200;8.220;2024-03-23T03:17:26;100.93;;;42.70;;
4462;SDS011;2244;50.200;8.220;2024-03-23T03:19:54;99.33;;;43.93;;
4462;SDS011;2244;50.200;8.220;2024-03-23T03:22:22;99.90;;;43.73;;
4462;SDS011;2244;50.200;8.220;2024-03-23T03:24:50;80.17;;;37.80;;
4462;SDS011;2244;50.200;8.220;2024-03-23T03:27:17;60.90;;;27.07;;
4462;SDS011;2244;50.200;8.220;2024-03-23T03:29:45;58.10;;;27.13;;
4462;SDS011;2244;50.200;8.220;2024-03-23T03:32:13;51.67;;;23.50;;
4462;SDS011;2244;50.200;8.220;2024-03-23T03:34:40;42.73;;;16.70;;
4462;SDS011;2244;50.200;8.220;2024-03-23T03:37:08;38.87;;;13.90;;
4462;SDS011;2244;50.200;8.220;2024-03-23T03:39:35;28.50;;;8.17;;
4462;SDS011;2244;50.200;8.220;2024-03-23T03:42:03;25.67;;;5.60;;
4462;SDS011;2244;50.200;8.220;2024-03-23T03:44:32;26.53;;;5.93;;
4462;SDS011;2244;50.200;8.220;2024-03-23T03:47:00;24.87;;;4.50;;
4462;SDS011;2244;50.200;8.220;2024-03-23T03:49:27;22.70;;;3.23;;
4462;SDS011;2244;50.200;8.220;2024-03-23T03:51:54;22.67;;;2.93;;
4462;SDS011;2244;50.200;8.220;2024-03-23T03:54:22;23.00;;;3.30;;
4462;SDS011;2244;50.200;8.220;2024-03-23T03:56:49;22.60;;;3.17;;
4462;SDS011;2244;50.200;8.220;2024-03-23T03:59:17;23.67;;;4.20;;
4462;SDS011;2244;50.200;8.220;2024-03-23T04:01:44;22.57;;;3.30;;
4462;SDS011;2244;50.200;8.220;2024-03-23T04:04:11;23.50;;;3.40;;
4462;SDS011;2244;50.200;8.220;2024-03-23T04:06:40;21.80;;;3.17;;
4462;SDS011;2244;50.200;8.220;2024-03-23T04:09:07;22.93;;;3.30;;
4462;SDS011;2244;50.200;8.220;2024-03-23T04:11:35;30.83;;;3.07;;
4462;SDS011;2244;50.200;8.220;2024-03-23T04:14:02;21.83;;;2.83;;
4462;SDS011;2244;50.200;8.220;2024-03-23T04:16:33;21.97;;;2.80;;
4462;SDS011;2244;50.200;8.220;2024-03-23T04:18:59;21.20;;;2.30;;
4462;SDS011;2244;50.200;8.220;2024-03-23T04:21:26;22.30;;;2.90;;
4462;SDS011;2244;50.200;8.220;2024-03-23T04:23:54;23.00;;;2.60;;
4462;SDS011;2244;50.200;8.220;2024-03-23T04:26:21;22.13;;;2.70;;
4462;SDS011;2244;50.200;8.220;2024-03-23T04:28:48;22.30;;;2.50;;
4462;SDS011;2244;50.200;8.220;2024-03-23T04:31:16;20.93;;;2.27;;
4462;SDS011;2244;50.200;8.220;2024-03-23T04:33:43;21.10;;;2.70;;
4462;SDS011;2244;50.200;8.220;2024-03-23T04:36:11;21.10;;;2.60;;
4462;SDS011;2244;50.200;8.220;2024-03-23T04:38:38;21.27;;;2.43;;
4462;SDS011;2244;50.200;8.220;2024-03-23T04:41:06;21.90;;;2.90;;
4462;SDS011;2244;50.200;8.220;2024-03-23T04:43:33;21.93;;;2.90;;
4462;SDS011;2244;50.200;8.220;2024-03-23T04:46:00;21.43;;;2.73;;
4462;SDS011;2244;50.200;8.220;2024-03-23T04:48:28;21.97;;;3.10;;
4462;SDS011;2244;50.200;8.220;2024-03-23T04:50:55;23.00;;;3.60;;
4462;SDS011;2244;50.200;8.220;2024-03-23T04:53:24;21.80;;;3.23;;
4462;SDS011;2244;50.200;8.220;2024-03-23T04:55:54;22.07;;;3.40;;
4462;SDS011;2244;50.200;8.220;2024-03-23T04:58:22;21.50;;;3.10;;
4462;SDS011;2244;50.200;8.220;2024-03-23T05:00:56;24.70;;;3.50;;
4462;SDS011;2244;50.200;8.220;2024-03-23T05:03:24;22.27;;;3.20;;
4462;SDS011;2244;50.200;8.220;2024-03-23T05:05:51;22.47;;;3.30;;
4462;SDS011;2244;50.200;8.220;2024-03-23T05:08:19;22.30;;;3.33;;
4462;SDS011;2244;50.200;8.220;2024-03-23T05:10:47;22.17;;;3.70;;
4462;SDS011;2244;50.200;8.220;2024-03-23T05:13:14;24.67;;;4.87;;
4462;SDS011;2244;50.200;8.220;2024-03-23T05:15:41;22.30;;;3.10;;
4462;SDS011;2244;50.200;8.220;2024-03-23T05:18:09;21.93;;;3.37;;
4462;SDS011;2244;50.200;8.220;2024-03-23T05:20:36;21.57;;;3.00;;
4462;SDS011;2244;50.200;8.220;2024-03-23T05:23:04;20.77;;;2.40;;
4462;SDS011;2244;50.200;8.220;2024-03-23T05:25:32;21.13;;;2.40;;
4462;SDS011;2244;50.200;8.220;2024-03-23T05:28:00;21.20;;;2.80;;
4462;SDS011;2244;50.200;8.220;2024-03-23T05:30:28;20.97;;;2.43;;
4462;SDS011;2244;50.200;8.220;2024-03-23T05:32:56;20.50;;;2.17;;
4462;SDS011;2244;50.200;8.220;2024-03-23T05:35:23;21.23;;;2.57;;
4462;SDS011;2244;50.200;8.220;2024-03-23T05:37:50;21.17;;;2.30;;
4462;SDS011;2244;50.200;8.220;2024-03-23T05:40:18;21.13;;;3.60;;
4462;SDS011;2244;50.200;8.220;2024-03-23T05:42:45;20.40;;;1.77;;
4462;SDS011;2244;50.200;8.220;2024-03-23T05:45:13;21.00;;;1.70;;
4462;SDS011;2244;50.200;8.220;2024-03-23T05:47:40;21.83;;;3.80;;
4462;SDS011;2244;50.200;8.220;2024-03-23T05:50:08;20.47;;;1.50;;
4462;SDS011;2244;50.200;8.220;2024-03-23T05:52:37;20.90;;;1.60;;
4462;SDS011;2244;50.200;8.220;2024-03-23T05:55:05;20.87;;;1.80;;
4462;SDS011;2244;50.200;8.220;2024-03-23T05:57:32;20.77;;;1.50;;
4462;SDS011;2244;50.200;8.220;2024-03-23T06:00:00;20.17;;;1.80;;
4462;SDS011;2244;50.200;8.220;2024-03-23T06:02:27;20.20;;;1.60;;
4462;SDS011;2244;50.200;8.220;2024-03-23T06:04:55;20.90;;;1.50;;
4462;SDS011;2244;50.200;8.220;2024-03-23T06:07:22;22.13;;;1.63;;
4462;SDS011;2244;50.200;8.220;2024-03-23T06:09:50;21.10;;;1.80;;
4462;SDS011;2244;50.200;8.220;2024-03-23T06:12:17;20.40;;;1.60;;
4462;SDS011;2244;50.200;8.220;2024-03-23T06:14:44;20.40;;;1.60;;
4462;SDS011;2244;50.200;8.220;2024-03-23T06:17:12;21.30;;;1.80;;
4462;SDS011;2244;50.200;8.220;2024-03-23T06:19:40;21.37;;;1.93;;
4462;SDS011;2244;50.200;8.220;2024-03-23T06:22:07;23.80;;;2.53;;
4462;SDS011;2244;50.200;8.220;2024-03-23T06:24:34;21.83;;;2.00;;
4462;SDS011;2244;50.200;8.220;2024-03-23T06:27:02;23.03;;;2.20;;
4462;SDS011;2244;50.200;8.220;2024-03-23T06:29:29;22.40;;;2.10;;
4462;SDS011;2244;50.200;8.220;2024-03-23T06:31:57;29.10;;;2.40;;
4462;SDS011;2244;50.200;8.220;2024-03-23T06:34:24;23.20;;;2.33;;
4462;SDS011;2244;50.200;8.220;2024-03-23T06:36:52;23.70;;;2.43;;
4462;SDS011;2244;50.200;8.220;2024-03-23T06:39:19;21.97;;;2.20;;
4462;SDS011;2244;50.200;8.220;2024-03-23T06:41:52;26.13;;;3.20;;
4462;SDS011;2244;50.200;8.220;2024-03-23T06:44:20;26.27;;;3.03;;
4462;SDS011;2244;50.200;8.220;2024-03-23T06:46:48;25.30;;;3.13;;
4462;SDS011;2244;50.200;8.220;2024-03-23T06:49:15;28.77;;;3.60;;
4462;SDS011;2244;50.200;8.220;2024-03-23T06:51:45;25.00;;;3.03;;
4462;SDS011;2244;50.200;8.220;2024-03-23T06:54:12;27.67;;;3.33;;
4462;SDS011;2244;50.200;8.220;2024-03-23T06:56:40;26.83;;;3.07;;
4462;SDS011;2244;50.200;8.220;2024-03-23T06:59:07;24.47;;;3.40;;
4462;SDS011;2244;50.200;8.220;2024-03-23T07:01:34;27.30;;;3.70;;
4462;SDS011;2244;50.200;8.220;2024-03-23T07:04:02;29.07;;;3.17;;
4462;SDS011;2244;50.200;8.220;2024-03-23T07:06:30;25.67;;;3.73;;
4462;SDS011;2244;50.200;8.220;2024-03-23T07:08:58;28.17;;;5.40;;
4462;SDS011;2244;50.200;8.220;2024-03-23T07:11:25;26.27;;;4.60;;
4462;SDS011;2244;50.200;8.220;2024-03-23T07:13:53;29.40;;;4.93;;
4462;SDS011;2244;50.200;8.220;2024-03-23T07:16:23;27.17;;;5.40;;
4462;SDS011;2244;50.200;8.220;2024-03-23T07:18:51;26.40;;;5.27;;
4462;SDS011;2244;50.200;8.220;2024-03-23T07:21:18;27.03;;;6.00;;
4462;SDS011;2244;50.200;8.220;2024-03-23T07:23:46;25.40;;;5.97;;
4462;SDS011;2244;50.200;8.220;2024-03-23T07:26:13;27.43;;;6.07;;
4462;SDS011;2244;50.200;8.220;2024-03-23T07:28:41;29.60;;;5.80;;
4462;SDS011;2244;50.200;8.220;2024-03-23T07:31:11;31.93;;;6.70;;
4462;SDS011;2244;50.200;8.220;2024-03-23T07:33:43;29.77;;;7.10;;
4462;SDS011;2244;50.200;8.220;2024-03-23T07:36:10;27.37;;;6.10;;
4462;SDS011;2244;50.200;8.220;2024-03-23T07:38:48;28.20;;;7.00;;
4462;SDS011;2244;50.200;8.220;2024-03-23T07:41:19;26.10;;;6.70;;
4462;SDS011;2244;50.200;8.220;2024-03-23T07:43:45;28.10;;;6.60;;
4462;SDS011;2244;50.200;8.220;2024-03-23T07:46:14;30.67;;;7.60;;
4462;SDS011;2244;50.200;8.220;2024-03-23T07:48:41;29.43;;;7.07;;
4462;SDS011;2244;50.200;8.220;2024-03-23T07:51:10;32.67;;;7.53;;
4462;SDS011;2244;50.200;8.220;2024-03-23T07:53:37;34.63;;;8.30;;
4462;SDS011;2244;50.200;8.220;2024-03-23T07:56:08;29.63;;;8.10;;
4462;SDS011;2244;50.200;8.220;2024-03-23T07:58:37;30.50;;;7.87;;
4462;SDS011;2244;50.200;8.220;2024-03-23T08:01:06;33.17;;;8.43;;
4462;SDS011;2244;50.200;8.220;2024-03-23T08:03:35;30.97;;;7.30;;
4462;SDS011;2244;50.200;8.220;2024-03-23T08:06:18;30.33;;;8.20;;
4462;SDS011;2244;50.200;8.220;2024-03-23T08:08:47;31.43;;;7.90;;
4462;SDS011;2244;50.200;8.220;2024-03-23T08:11:15;35.87;;;7.30;;
4462;SDS011;2244;50.200;8.220;2024-03-23T08:13:44;31.53;;;7.10;;
4462;SDS011;2244;50.200;8.220;2024-03-23T08:16:12;29.87;;;6.90;;
4462;SDS011;2244;50.200;8.220;2024-03-23T08:18:41;28.67;;;5.77;;
4462;SDS011;2244;50.200;8.220;2024-03-23T08:21:09;35.87;;;6.10;;
4462;SDS011;2244;50.200;8.220;2024-03-23T08:23:36;41.30;;;7.23;;
4462;SDS011;2244;50.200;8.220;2024-03-23T08:28:33;35.70;;;6.80;;
4462;SDS011;2244;50.200;8.220;2024-03-23T08:31:01;29.87;;;5.93;;
4462;SDS011;2244;50.200;8.220;2024-03-23T08:33:30;32.37;;;7.17;;
4462;SDS011;2244;50.200;8.220;2024-03-23T08:36:00;30.33;;;6.90;;
4462;SDS011;2244;50.200;8.220;2024-03-23T08:38:27;31.10;;;7.00;;
4462;SDS011;2244;50.200;8.220;2024-03-23T08:40:59;37.63;;;6.80;;
4462;SDS011;2244;50.200;8.220;2024-03-23T08:43:26;33.43;;;7.40;;
4462;SDS011;2244;50.200;8.220;2024-03-23T08:45:54;34.97;;;7.57;;
4462;SDS011;2244;50.200;8.220;2024-03-23T08:48:21;33.60;;;7.80;;
4462;SDS011;2244;50.200;8.220;2024-03-23T08:51:03;32.47;;;7.10;;
4462;SDS011;2244;50.200;8.220;2024-03-23T08:53:29;31.57;;;8.03;;
4462;SDS011;2244;50.200;8.220;2024-03-23T08:55:58;31.47;;;7.07;;
4462;SDS011;2244;50.200;8.220;2024-03-23T08:58:27;32.37;;;6.83;;
4462;SDS011;2244;50.200;8.220;2024-03-23T09:00:55;30.60;;;6.83;;
4462;SDS011;2244;50.200;8.220;2024-03-23T09:03:25;27.07;;;6.43;;
4462;SDS011;2244;50.200;8.220;2024-03-23T09:05:54;32.43;;;6.70;;
4462;SDS011;2244;50.200;8.220;2024-03-23T09:08:21;28.77;;;6.40;;
4462;SDS011;2244;50.200;8.220;2024-03-23T09:10:49;30.23;;;7.40;;
4462;SDS011;2244;50.200;8.220;2024-03-23T09:13:16;28.37;;;5.80;;
4462;SDS011;2244;50.200;8.220;2024-03-23T09:15:51;28.50;;;5.70;;
4462;SDS011;2244;50.200;8.220;2024-03-23T09:18:15;28.33;;;5.90;;
4462;SDS011;2244;50.200;8.220;2024-03-23T09:20:43;33.77;;;6.07;;
4462;SDS011;2244;50.200;8.220;2024-03-23T09:23:10;33.27;;;5.47;;
4462;SDS011;2244;50.200;8.220;2024-03-23T09:25:38;27.90;;;5.40;;
4462;SDS011;2244;50.200;8.220;2024-03-23T09:28:07;28.30;;;4.97;;
4462;SDS011;2244;50.200;8.220;2024-03-23T09:30:37;31.00;;;5.00;;
4462;SDS011;2244;50.200;8.220;2024-03-23T09:33:06;29.43;;;4.87;;
4462;SDS011;2244;50.200;8.220;2024-03-23T09:35:38;24.47;;;3.83;;
4462;SDS011;2244;50.200;8.220;2024-03-23T09:38:06;27.13;;;3.80;;
4462;SDS011;2244;50.200;8.220;2024-03-23T09:40:42;27.57;;;3.73;;
4462;SDS011;2244;50.200;8.220;2024-03-23T09:43:09;55.03;;;49.50;;
4462;SDS011;2244;50.200;8.220;2024-03-23T09:45:40;28.20;;;3.50;;
4462;SDS011;2244;50.200;8.220;2024-03-23T09:48:08;26.57;;;9.03;;
4462;SDS011;2244;50.200;8.220;2024-03-23T09:50:40;25.90;;;3.80;;
4462;SDS011;2244;50.200;8.220;2024-03-23T09:53:09;25.23;;;7.53;;
4462;SDS011;2244;50.200;8.220;2024-03-23T09:55:38;25.30;;;3.23;;
4462;SDS011;2244;50.200;8.220;2024-03-23T09:58:06;24.40;;;3.17;;
4462;SDS011;2244;50.200;8.220;2024-03-23T10:00:34;21.20;;;3.00;;
4462;SDS011;2244;50.200;8.220;2024-03-23T10:03:01;26.40;;;3.70;;
4462;SDS011;2244;50.200;8.220;2024-03-23T10:05:30;36.13;;;22.87;;
4462;SDS011;2244;50.200;8.220;2024-03-23T10:08:01;21.03;;;3.33;;
4462;SDS011;2244;50.200;8.220;2024-03-23T10:10:29;25.13;;;3.20;;
4462;SDS011;2244;50.200;8.220;2024-03-23T10:12:56;25.30;;;3.10;;
4462;SDS011;2244;50.200;8.220;2024-03-23T10:15:24;23.80;;;4.10;;
4462;SDS011;2244;50.200;8.220;2024-03-23T10:17:52;24.80;;;3.30;;
4462;SDS011;2244;50.200;8.220;2024-03-23T10:20:20;25.47;;;4.03;;
4462;SDS011;2244;50.200;8.220;2024-03-23T10:22:50;21.03;;;2.90;;
4462;SDS011;2244;50.200;8.220;2024-03-23T10:25:22;21.80;;;2.90;;
4462;SDS011;2244;50.200;8.220;2024-03-23T10:27:56;18.17;;;2.47;;
4462;SDS011;2244;50.200;8.220;2024-03-23T10:30:16;21.57;;;2.60;;
4462;SDS011;2244;50.200;8.220;2024-03-23T10:32:43;20.97;;;2.50;;
4462;SDS011;2244;50.200;8.220;2024-03-23T10:35:23;23.50;;;3.07;;
4462;SDS011;2244;50.200;8.220;2024-03-23T10:37:51;25.73;;;3.07;;
4462;SDS011;2244;50.200;8.220;2024-03-23T10:40:18;22.30;;;2.97;;
4462;SDS011;2244;50.200;8.220;2024-03-23T10:42:46;26.00;;;3.00;;
4462;SDS011;2244;50.200;8.220;2024-03-23T10:45:13;20.50;;;2.43;;
4462;SDS011;2244;50.200;8.220;2024-03-23T10:47:41;21.43;;;3.20;;
4462;SDS011;2244;50.200;8.220;2024-03-23T10:50:09;24.67;;;2.97;;
4462;SDS011;2244;50.200;8.220;2024-03-23T10:52:36;24.83;;;3.10;;
4462;SDS011;2244;50.200;8.220;2024-03-23T10:55:04;27.47;;;3.03;;
4462;SDS011;2244;50.200;8.220;2024-03-23T10:57:40;23.03;;;3.20;;
4462;SDS011;2244;50.200;8.220;2024-03-23T11:00:08;21.50;;;3.20;;
4462;SDS011;2244;50.200;8.220;2024-03-23T11:02:35;23.93;;;3.27;;
4462;SDS011;2244;50.200;8.220;2024-03-23T11:05:27;27.83;;;5.03;;
4462;SDS011;2244;50.200;8.220;2024-03-23T11:07:32;25.20;;;4.60;;
4462;SDS011;2244;50.200;8.220;2024-03-23T11:10:00;25.27;;;5.80;;
4462;SDS011;2244;50.200;8.220;2024-03-23T11:12:29;24.10;;;5.10;;
4462;SDS011;2244;50.200;8.220;2024-03-23T11:15:05;23.57;;;4.60;;
4462;SDS011;2244;50.200;8.220;2024-03-23T11:17:33;24.07;;;4.87;;
4462;SDS011;2244;50.200;8.220;2024-03-23T11:20:01;23.47;;;4.20;;
4462;SDS011;2244;50.200;8.220;2024-03-23T11:22:42;28.80;;;4.50;;
4462;SDS011;2244;50.200;8.220;2024-03-23T11:25:17;29.80;;;4.10;;
4462;SDS011;2244;50.200;8.220;2024-03-23T11:27:47;24.17;;;3.87;;
4462;SDS011;2244;50.200;8.220;2024-03-23T11:32:50;22.00;;;6.53;;
4462;SDS011;2244;50.200;8.220;2024-03-23T11:35:28;24.30;;;3.90;;
4462;SDS011;2244;50.200;8.220;2024-03-23T11:40:34;25.07;;;8.00;;
4462;SDS011;2244;50.200;8.220;2024-03-23T11:43:07;22.43;;;3.73;;
4462;SDS011;2244;50.200;8.220;2024-03-23T11:45:34;21.93;;;3.37;;
4462;SDS011;2244;50.200;8.220;2024-03-23T11:48:02;20.80;;;3.63;;
4462;SDS011;2244;50.200;8.220;2024-03-23T11:50:30;23.13;;;7.10;;
4462;SDS011;2244;50.200;8.220;2024-03-23T11:53:08;21.17;;;3.30;;
4462;SDS011;2244;50.200;8.220;2024-03-23T11:56:18;20.03;;;3.30;;
4462;SDS011;2244;50.200;8.220;2024-03-23T11:58:07;22.77;;;4.07;;
4462;SDS011;2244;50.200;8.220;2024-03-23T12:00:35;24.53;;;5.20;;
4462;SDS011;2244;50.200;8.220;2024-03-23T12:03:02;18.33;;;2.70;;
4462;SDS011;2244;50.200;8.220;2024-03-23T12:05:31;23.87;;;3.27;;
4462;SDS011;2244;50.200;8.220;2024-03-23T12:10:44;21.17;;;2.90;;
4462;SDS011;2244;50.200;8.220;2024-03-23T12:13:14;22.17;;;2.70;;
4462;SDS011;2244;50.200;8.220;2024-03-23T12:15:41;19.70;;;3.00;;
4462;SDS011;2244;50.200;8.220;2024-03-23T12:18:09;23.30;;;3.00;;
4462;SDS011;2244;50.200;8.220;2024-03-23T12:20:37;20.87;;;2.40;;
4462;SDS011;2244;50.200;8.220;2024-03-23T12:23:05;18.20;;;2.30;;
4462;SDS011;2244;50.200;8.220;2024-03-23T12:25:33;16.53;;;2.13;;
4462;SDS011;2244;50.200;8.220;2024-03-23T12:28:02;20.10;;;2.50;;
4462;SDS011;2244;50.200;8.220;2024-03-23T12:30:29;16.80;;;2.20;;
4462;SDS011;2244;50.200;8.220;2024-03-23T12:32:57;20.40;;;1.90;;
4462;SDS011;2244;50.200;8.220;2024-03-23T12:35:24;20.20;;;1.90;;
4462;SDS011;2244;50.200;8.220;2024-03-23T12:37:51;17.43;;;1.90;;
4462;SDS011;2244;50.200;8.220;2024-03-23T12:40:19;25.53;;;2.23;;
4462;SDS011;2244;50.200;8.220;2024-03-23T12:42:46;15.70;;;1.60;;
4462;SDS011;2244;50.200;8.220;2024-03-23T12:45:14;20.20;;;6.60;;
4462;SDS011;2244;50.200;8.220;2024-03-23T12:47:41;20.87;;;2.03;;
4462;SDS011;2244;50.200;8.220;2024-03-23T12:50:09;17.93;;;1.93;;
4462;SDS011;2244;50.200;8.220;2024-03-23T12:52:37;19.30;;;2.73;;
4462;SDS011;2244;50.200;8.220;2024-03-23T12:55:04;19.93;;;2.60;;
4462;SDS011;2244;50.200;8.220;2024-03-23T12:57:33;19.60;;;2.00;;
4462;SDS011;2244;50.200;8.220;2024-03-23T13:00:01;21.33;;;1.70;;
4462;SDS011;2244;50.200;8.220;2024-03-23T13:02:30;19.93;;;2.13;;
4462;SDS011;2244;50.200;8.220;2024-03-23T13:04:57;21.50;;;2.07;;
4462;SDS011;2244;50.200;8.220;2024-03-23T13:07:25;20.40;;;2.20;;
4462;SDS011;2244;50.200;8.220;2024-03-23T13:09:52;19.07;;;1.40;;
4462;SDS011;2244;50.200;8.220;2024-03-23T13:12:20;19.80;;;1.40;;
4462;SDS011;2244;50.200;8.220;2024-03-23T13:14:47;18.43;;;1.00;;
4462;SDS011;2244;50.200;8.220;2024-03-23T13:17:15;19.00;;;1.20;;
4462;SDS011;2244;50.200;8.220;2024-03-23T13:19:42;18.10;;;0.90;;
4462;SDS011;2244;50.200;8.220;2024-03-23T13:22:10;18.07;;;0.97;;
4462;SDS011;2244;50.200;8.220;2024-03-23T13:24:39;18.77;;;1.20;;
4462;SDS011;2244;50.200;8.220;2024-03-23T13:27:06;21.63;;;1.20;;
4462;SDS011;2244;50.200;8.220;2024-03-23T13:29:34;20.17;;;2.27;;
4462;SDS011;2244;50.200;8.220;2024-03-23T13:32:02;19.27;;;1.27;;
4462;SDS011;2244;50.200;8.220;2024-03-23T13:34:29;19.17;;;1.10;;
4462;SDS011;2244;50.200;8.220;2024-03-23T13:36:57;19.20;;;1.00;;
4462;SDS011;2244;50.200;8.220;2024-03-23T13:39:27;18.40;;;0.97;;
4462;SDS011;2244;50.200;8.220;2024-03-23T13:41:55;19.90;;;1.10;;
4462;SDS011;2244;50.200;8.220;2024-03-23T13:44:22;21.53;;;1.30;;
4462;SDS011;2244;50.200;8.220;2024-03-23T13:46:50;20.93;;;1.20;;
4462;SDS011;2244;50.200;8.220;2024-03-23T13:49:24;18.17;;;1.00;;
4462;SDS011;2244;50.200;8.220;2024-03-23T13:51:49;20.70;;;1.10;;
4462;SDS011;2244;50.200;8.220;2024-03-23T13:54:17;19.47;;;1.40;;
4462;SDS011;2244;50.200;8.220;2024-03-23T13:56:44;19.87;;;1.40;;
4462;SDS011;2244;50.200;8.220;2024-03-23T13:59:11;19.53;;;1.43;;
4462;SDS011;2244;50.200;8.220;2024-03-23T14:01:39;19.30;;;1.50;;
4462;SDS011;2244;50.200;8.220;2024-03-23T14:04:07;19.60;;;2.07;;
4462;SDS011;2244;50.200;8.220;2024-03-23T14:06:34;18.30;;;1.90;;
4462;SDS011;2244;50.200;8.220;2024-03-23T14:09:01;17.47;;;1.40;;
4462;SDS011;2244;50.200;8.220;2024-03-23T14:11:30;19.87;;;3.20;;
4462;SDS011;2244;50.200;8.220;2024-03-23T14:13:57;17.23;;;1.20;;
4462;SDS011;2244;50.200;8.220;2024-03-23T14:16:25;16.87;;;0.93;;
4462;SDS011;2244;50.200;8.220;2024-03-23T14:18:52;18.37;;;1.10;;
4462;SDS011;2244;50.200;8.220;2024-03-23T14:21:19;18.00;;;0.93;;
4462;SDS011;2244;50.200;8.220;2024-03-23T14:23:47;18.10;;;1.10;;
4462;SDS011;2244;50.200;8.220;2024-03-23T14:26:14;16.83;;;1.10;;
4462;SDS011;2244;50.200;8.220;2024-03-23T14:28:42;17.10;;;1.20;;
4462;SDS011;2244;50.200;8.220;2024-03-23T14:31:09;17.20;;;1.30;;
4462;SDS011;2244;50.200;8.220;2024-03-23T14:33:40;17.17;;;1.40;;
4462;SDS011;2244;50.200;8.220;2024-03-23T14:36:08;17.47;;;1.37;;
4462;SDS011;2244;50.200;8.220;2024-03-23T14:38:35;18.70;;;1.37;;
4462;SDS011;2244;50.200;8.220;2024-03-23T14:41:03;19.00;;;1.30;;
4462;SDS011;2244;50.200;8.220;2024-03-23T14:43:30;17.00;;;1.43;;
4462;SDS011;2244;50.200;8.220;2024-03-23T14:46:12;53.13;;;48.17;;
4462;SDS011;2244;50.200;8.220;2024-03-23T14:48:39;17.80;;;1.20;;
4462;SDS011;2244;50.200;8.220;2024-03-23T14:51:08;18.23;;;1.40;;
4462;SDS011;2244;50.200;8.220;2024-03-23T14:53:35;19.33;;;1.90;;
4462;SDS011;2244;50.200;8.220;2024-03-23T14:56:04;17.90;;;1.37;;
4462;SDS011;2244;50.200;8.220;2024-03-23T14:58:32;20.47;;;2.57;;
4462;SDS011;2244;50.200;8.220;2024-03-23T15:01:01;20.20;;;4.30;;
4462;SDS011;2244;50.200;8.220;2024-03-23T15:03:28;18.33;;;1.57;;
4462;SDS011;2244;50.200;8.220;2024-03-23T15:05:56;20.53;;;9.43;;
4462;SDS011;2244;50.200;8.220;2024-03-23T15:08:24;20.17;;;6.10;;
4462;SDS011;2244;50.200;8.220;2024-03-23T15:10:51;17.67;;;1.50;;
4462;SDS011;2244;50.200;8.220;2024-03-23T15:13:19;18.67;;;1.80;;
4462;SDS011;2244;50.200;8.220;2024-03-23T15:15:48;18.27;;;1.30;;
4462;SDS011;2244;50.200;8.220;2024-03-23T15:18:16;20.20;;;1.60;;
4462;SDS011;2244;50.200;8.220;2024-03-23T15:21:03;18.80;;;1.40;;
4462;SDS011;2244;50.200;8.220;2024-03-23T15:23:16;19.30;;;1.40;;
4462;SDS011;2244;50.200;8.220;2024-03-23T15:25:45;21.63;;;2.97;;
4462;SDS011;2244;50.200;8.220;2024-03-23T15:28:12;20.60;;;1.37;;
4462;SDS011;2244;50.200;8.220;2024-03-23T15:30:40;22.30;;;1.57;;
4462;SDS011;2244;50.200;8.220;2024-03-23T15:33:07;21.13;;;1.20;;
4462;SDS011;2244;50.200;8.220;2024-03-23T15:35:35;22.30;;;1.50;;
4462;SDS011;2244;50.200;8.220;2024-03-23T15:38:02;21.23;;;1.50;;
4462;SDS011;2244;50.200;8.220;2024-03-23T15:40:30;19.87;;;1.33;;
4462;SDS011;2244;50.200;8.220;2024-03-23T15:42:57;18.10;;;1.20;;
4462;SDS011;2244;50.200;8.220;2024-03-23T15:45:25;22.40;;;1.50;;
4462;SDS011;2244;50.200;8.220;2024-03-23T15:47:52;20.90;;;1.60;;
4462;SDS011;2244;50.200;8.220;2024-03-23T15:50:19;19.90;;;1.13;;
4462;SDS011;2244;50.200;8.220;2024-03-23T15:52:47;19.10;;;1.40;;
4462;SDS011;2244;50.200;8.220;2024-03-23T15:55:14;21.43;;;1.60;;
4462;SDS011;2244;50.200;8.220;2024-03-23T15:57:42;20.90;;;1.50;;
4462;SDS011;2244;50.200;8.220;2024-03-23T16:00:09;23.47;;;1.63;;
4462;SDS011;2244;50.200;8.220;2024-03-23T16:02:37;20.67;;;1.40;;
4462;SDS011;2244;50.200;8.220;2024-03-23T16:05:04;19.30;;;1.40;;
4462;SDS011;2244;50.200;8.220;2024-03-23T16:07:32;23.13;;;1.40;;